Welcome to Northern Hawkes Bay. New Zealand.
PWS Header
      nz Flag



Hit Counter


W3C Valid W3C Valid logo


    Wairoa

Select any of the Stations below to visit their websites.










Historic Data from Weather Underground
Select the location of interest below. Wairoa is the default. Please have patience, this Data is slow to load in.
Northern Hawkes Bay Historical Data
Daily Summary for July 20, 2017 Units:  Metric    English   Both
« Previous Day
Next Day »
Daily Weekly Monthly Yearly Custom
  High: Low: Average:
Temperature: 20.1 °C 5.3 °C 13.2 °C
Dew Point: 13.6 °C 5.2 °C 10.1 °C
Humidity: 99% 60% 83%
Wind Speed: 25.6km/h 0.0km/h 5.1km/h
Wind Gust: 43.9km/h - -
Wind- - ESE
Pressure: 1010.0 hPa 979.2 hPa -
Precipitation: 0.5 mm    
Historical Graphs
 
 
Tabular Data for July 20, 2017
Time Temperature Dew Point Pressure Wind Wind Speed Wind Gust Humidity Rainfall Rate (Hourly) solar
00:05 10.0 °C 9.2 °C 1010.0 hPa WSW 1.1 km/h 5.0 km/h 95% 0.0 mm 0 W/m2
00:10 10.0 °C 9.2 °C 1010.0 hPa WNW 2.6 km/h 5.0 km/h 95% 0.0 mm 0 W/m2
00:12 10.0 °C 9.2 °C 1009.7 hPa WNW 2.6 km/h 5.0 km/h 95% 0.0 mm 0 W/m2
00:17 10.2 °C 9.4 °C 1009.7 hPa NW 1.1 km/h 5.0 km/h 95% 0.0 mm 0 W/m2
00:22 9.9 °C 9.3 °C 1009.7 hPa Calm   5.0 km/h 96% 0.0 mm 0 W/m2
00:27 9.7 °C 8.9 °C 1009.7 hPa NNE 1.1 km/h 2.6 km/h 95% 0.0 mm 0 W/m2
00:32 9.3 °C 8.6 °C 1009.4 hPa North 2.6 km/h 3.5 km/h 95% 0.0 mm 0 W/m2
00:37 9.8 °C 9.1 °C 1009.4 hPa North 3.5 km/h 5.0 km/h 95% 0.0 mm 0 W/m2
00:42 9.7 °C 9.1 °C 1009.4 hPa NNW 2.6 km/h 5.0 km/h 96% 0.0 mm 0 W/m2
00:47 9.6 °C 9.0 °C 1009.4 hPa NW 1.1 km/h 5.0 km/h 96% 0.0 mm 0 W/m2
00:52 9.7 °C 9.1 °C 1009.4 hPa NW 1.1 km/h 3.5 km/h 96% 0.0 mm 0 W/m2
00:57 9.8 °C 9.2 °C 1009.4 hPa Calm   3.5 km/h 96% 0.0 mm 0 W/m2
01:02 10.0 °C 9.2 °C 1009.4 hPa North 2.6 km/h 3.5 km/h 95% 0.0 mm 0 W/m2
01:07 9.9 °C 9.3 °C 1009.0 hPa Calm   3.5 km/h 96% 0.0 mm 0 W/m2
01:12 9.6 °C 9.0 °C 1009.4 hPa NE 1.1 km/h 3.5 km/h 96% 0.0 mm 0 W/m2
01:17 9.8 °C 9.2 °C 1009.0 hPa NNE 1.1 km/h 3.5 km/h 96% 0.0 mm 0 W/m2
01:22 9.8 °C 9.2 °C 1009.0 hPa North 1.1 km/h 3.5 km/h 96% 0.0 mm 0 W/m2
01:27 9.8 °C 9.2 °C 1009.0 hPa NNW 3.5 km/h 5.0 km/h 96% 0.0 mm 0 W/m2
01:32 9.9 °C 9.3 °C 1009.0 hPa NW 3.5 km/h 6.1 km/h 96% 0.0 mm 0 W/m2
01:37 9.7 °C 9.1 °C 1009.0 hPa NNW 2.6 km/h 6.1 km/h 96% 0.0 mm 0 W/m2
01:40 9.9 °C 9.3 °C 1008.7 hPa NNW 1.1 km/h 6.1 km/h 96% 0.0 mm 0 W/m2
01:45 9.6 °C 9.0 °C 1008.7 hPa Calm   5.0 km/h 96% 0.0 mm 0 W/m2
01:50 9.5 °C 8.9 °C 1008.7 hPa North 2.6 km/h 5.0 km/h 96% 0.0 mm 0 W/m2
01:55 9.5 °C 8.9 °C 1008.7 hPa NW 3.5 km/h 6.1 km/h 96% 0.0 mm 0 W/m2
02:00 9.6 °C 9.0 °C 1008.7 hPa NW 2.6 km/h 6.1 km/h 96% 0.0 mm 0 W/m2
02:05 9.7 °C 9.1 °C 1009.0 hPa NNW 5.0 km/h 6.1 km/h 96% 0.0 mm 0 W/m2
02:06 9.8 °C 9.2 °C 1009.0 hPa NNW 5.0 km/h 6.1 km/h 96% 0.0 mm 0 W/m2
02:11 9.8 °C 9.3 °C 1009.0 hPa NNW 3.5 km/h 6.1 km/h 97% 0.0 mm 0 W/m2
02:16 9.9 °C 9.4 °C 1008.7 hPa NW 3.5 km/h 6.1 km/h 97% 0.0 mm 0 W/m2
02:21 10.2 °C 9.6 °C 1009.0 hPa NNW 2.6 km/h 6.1 km/h 96% 0.0 mm 0 W/m2
02:26 10.2 °C 9.6 °C 1009.0 hPa NNE 1.1 km/h 6.1 km/h 96% 0.0 mm 0 W/m2
02:31 10.0 °C 9.4 °C 1009.0 hPa NNE 2.6 km/h 3.5 km/h 96% 0.0 mm 0 W/m2
02:36 10.3 °C 9.7 °C 1008.7 hPa North 3.5 km/h 6.1 km/h 96% 0.0 mm 0 W/m2
02:41 10.1 °C 9.5 °C 1009.0 hPa North 3.5 km/h 6.1 km/h 96% 0.0 mm 0 W/m2
02:46 10.2 °C 9.4 °C 1008.7 hPa North 2.6 km/h 6.1 km/h 95% 0.0 mm 0 W/m2
02:51 10.1 °C 9.3 °C 1008.7 hPa North 1.1 km/h 5.0 km/h 95% 0.0 mm 0 W/m2
02:56 9.6 °C 9.0 °C 1008.7 hPa NNE 1.1 km/h 5.0 km/h 96% 0.0 mm 0 W/m2
03:01 9.8 °C 9.2 °C 1008.7 hPa NE 1.1 km/h 5.0 km/h 96% 0.0 mm 0 W/m2
03:06 9.6 °C 9.0 °C 1008.4 hPa NNE 2.6 km/h 5.0 km/h 96% 0.0 mm 0 W/m2
03:11 9.2 °C 8.6 °C 1008.4 hPa NNW 3.5 km/h 5.0 km/h 96% 0.0 mm 0 W/m2
03:16 8.8 °C 8.2 °C 1008.0 hPa NW 3.5 km/h 5.0 km/h 96% 0.0 mm 0 W/m2
03:21 9.3 °C 8.7 °C 1008.4 hPa NW 2.6 km/h 5.0 km/h 96% 0.0 mm 0 W/m2
03:27 9.1 °C 8.5 °C 1008.0 hPa North 1.1 km/h 3.5 km/h 96% 0.0 mm 0 W/m2
03:32 8.6 °C 8.0 °C 1008.0 hPa NE 1.1 km/h 3.5 km/h 96% 0.0 mm 0 W/m2
03:37 9.0 °C 8.2 °C 1007.7 hPa Calm   2.6 km/h 95% 0.0 mm 0 W/m2
03:42 8.9 °C 8.4 °C 1007.7 hPa Calm   2.6 km/h 97% 0.0 mm 0 W/m2
03:47 8.7 °C 8.3 °C 1007.7 hPa Calm   2.6 km/h 97% 0.0 mm 0 W/m2
03:52 8.2 °C 7.6 °C 1007.3 hPa WNW 1.1 km/h 2.6 km/h 96% 0.0 mm 0 W/m2
03:57 8.4 °C 7.8 °C 1007.3 hPa NW 2.6 km/h 3.5 km/h 96% 0.0 mm 0 W/m2
04:02 8.4 °C 7.9 °C 1007.3 hPa NNW 2.6 km/h 5.0 km/h 97% 0.0 mm 0 W/m2
04:07 8.2 °C 7.8 °C 1007.3 hPa NNW 2.6 km/h 5.0 km/h 97% 0.0 mm 0 W/m2
04:12 8.0 °C 7.4 °C 1007.3 hPa North 2.6 km/h 6.1 km/h 96% 0.0 mm 0 W/m2
04:17 7.8 °C 7.3 °C 1007.3 hPa Calm   6.1 km/h 97% 0.0 mm 0 W/m2
04:22 7.8 °C 7.3 °C 1007.3 hPa NNE 1.1 km/h 5.0 km/h 97% 0.0 mm 0 W/m2
04:27 7.9 °C 7.4 °C 1007.3 hPa ENE 2.6 km/h 5.0 km/h 97% 0.0 mm 0 W/m2
04:32 7.9 °C 7.4 °C 1007.3 hPa East 1.1 km/h 5.0 km/h 97% 0.0 mm 0 W/m2
04:37 8.3 °C 7.8 °C 1007.0 hPa Calm   5.0 km/h 97% 0.0 mm 0 W/m2
04:42 8.1 °C 7.7 °C 1007.0 hPa East 1.1 km/h 2.6 km/h 97% 0.0 mm 0 W/m2
04:47 8.0 °C 7.6 °C 1007.3 hPa SW 1.1 km/h 3.5 km/h 97% 0.0 mm 0 W/m2
04:52 8.1 °C 7.8 °C 1007.3 hPa Calm   3.5 km/h 98% 0.0 mm 0 W/m2
04:57 8.3 °C 8.0 °C 1007.0 hPa Calm   2.6 km/h 98% 0.0 mm 0 W/m2
05:02 8.3 °C 8.0 °C 1007.0 hPa Calm   2.6 km/h 98% 0.0 mm 0 W/m2
05:08 7.8 °C 7.3 °C 1007.0 hPa Calm   2.6 km/h 97% 0.0 mm 0 W/m2
05:13 7.7 °C 7.3 °C 1007.0 hPa ESE 3.5 km/h 5.0 km/h 97% 0.0 mm 0 W/m2
05:18 7.9 °C 7.4 °C 1007.0 hPa ESE 2.6 km/h 6.1 km/h 97% 0.0 mm 0 W/m2
05:23 8.1 °C 7.8 °C 1006.7 hPa Calm   6.1 km/h 98% 0.0 mm 0 W/m2
05:28 8.3 °C 8.0 °C 1006.7 hPa Calm   3.5 km/h 98% 0.0 mm 0 W/m2
05:33 8.0 °C 7.7 °C 1006.7 hPa Calm   2.6 km/h 98% 0.0 mm 0 W/m2
05:38 7.6 °C 7.2 °C 1006.7 hPa NW 2.6 km/h 3.5 km/h 97% 0.0 mm 0 W/m2
05:43 7.3 °C 6.8 °C 1006.7 hPa NW 2.6 km/h 3.5 km/h 97% 0.0 mm 0 W/m2
05:48 7.2 °C 6.8 °C 1007.0 hPa Calm   5.0 km/h 97% 0.0 mm 0 W/m2
05:53 6.8 °C 6.5 °C 1006.7 hPa Calm   5.0 km/h 98% 0.0 mm 0 W/m2
05:58 6.8 °C 6.5 °C 1006.7 hPa NE 1.1 km/h 2.6 km/h 98% 0.0 mm 0 W/m2
06:03 6.9 °C 6.6 °C 1006.7 hPa Calm   2.6 km/h 98% 0.0 mm 0 W/m2
06:08 7.1 °C 6.7 °C 1006.7 hPa Calm   2.6 km/h 97% 0.0 mm 0 W/m2
06:13 7.0 °C 6.6 °C 1006.7 hPa North 2.6 km/h 2.6 km/h 97% 0.0 mm 0 W/m2
06:18 6.7 °C 6.4 °C 1006.7 hPa NW 1.1 km/h 2.6 km/h 98% 0.0 mm 0 W/m2
06:23 6.5 °C 6.2 °C 1006.7 hPa West 1.1 km/h 2.6 km/h 98% 0.0 mm 0 W/m2
06:28 6.5 °C 6.2 °C 1007.0 hPa SW 2.6 km/h 3.5 km/h 98% 0.0 mm 0 W/m2
06:33 6.3 °C 6.0 °C 1006.7 hPa Calm   3.5 km/h 98% 0.0 mm 0 W/m2
06:38 6.6 °C 6.3 °C 1006.7 hPa North 3.5 km/h 5.0 km/h 98% 0.0 mm 0 W/m2
06:43 6.3 °C 6.0 °C 1006.7 hPa NW 2.6 km/h 5.0 km/h 98% 0.0 mm 0 W/m2
06:48 6.2 °C 5.9 °C 1006.7 hPa NNW 1.1 km/h 5.0 km/h 98% 0.0 mm 0 W/m2
06:53 6.1 °C 5.8 °C 1006.7 hPa NW 1.1 km/h 3.5 km/h 98% 0.0 mm 0 W/m2
06:58 6.3 °C 6.0 °C 1006.7 hPa NW 5.0 km/h 6.1 km/h 98% 0.0 mm 0 W/m2
07:03 6.2 °C 5.9 °C 1006.7 hPa NNW 2.6 km/h 6.1 km/h 98% 0.0 mm 0 W/m2
07:08 6.0 °C 5.7 °C 1006.7 hPa NNW 2.6 km/h 6.1 km/h 98% 0.0 mm 0 W/m2
07:13 5.8 °C 5.7 °C 1006.3 hPa North 1.1 km/h 5.0 km/h 99% 0.0 mm 0 W/m2
07:18 5.5 °C 5.3 °C 1006.3 hPa NE 2.6 km/h 5.0 km/h 99% 0.0 mm 0 W/m2
07:23 5.5 °C 5.3 °C 1006.7 hPa North 2.6 km/h 5.0 km/h 99% 0.0 mm 0 W/m2
07:28 5.6 °C 5.4 °C 1006.7 hPa NNW 3.5 km/h 6.1 km/h 99% 0.0 mm 0 W/m2
07:33 5.3 °C 5.2 °C 1006.3 hPa NNW 1.1 km/h 6.1 km/h 99% 0.0 mm 3 W/m2
07:38 5.3 °C 5.2 °C 1006.3 hPa North 3.5 km/h 6.1 km/h 99% 0.0 mm 6 W/m2
07:40 5.3 °C 5.2 °C 1006.3 hPa North 3.5 km/h 6.1 km/h 99% 0.0 mm 9 W/m2
07:45 5.5 °C 5.3 °C 1006.3 hPa NNW 3.5 km/h 7.2 km/h 99% 0.0 mm 19 W/m2
07:50 5.6 °C 5.4 °C 1006.0 hPa NNW 3.5 km/h 7.2 km/h 99% 0.0 mm 39 W/m2
07:55 5.8 °C 5.7 °C 1006.3 hPa NNW 3.5 km/h 6.1 km/h 99% 0.0 mm 54 W/m2
08:00 6.1 °C 5.8 °C 1006.0 hPa NNW 3.5 km/h 6.1 km/h 98% 0.0 mm 35 W/m2
08:05 6.2 °C 5.9 °C 1006.3 hPa NNW 2.6 km/h 6.1 km/h 98% 0.0 mm 49 W/m2
08:10 6.2 °C 5.9 °C 1006.0 hPa North 3.5 km/h 6.1 km/h 98% 0.0 mm 38 W/m2
08:15 6.4 °C 6.1 °C 1006.0 hPa North 2.6 km/h 6.1 km/h 98% 0.0 mm 70 W/m2
08:20 6.8 °C 6.5 °C 1006.0 hPa North 2.6 km/h 6.1 km/h 98% 0.0 mm 91 W/m2
08:25 7.3 °C 6.8 °C 1006.0 hPa North 1.1 km/h 5.0 km/h 97% 0.0 mm 77 W/m2
08:30 7.4 °C 6.9 °C 1006.0 hPa North 2.6 km/h 5.0 km/h 97% 0.0 mm 66 W/m2
08:35 7.6 °C 7.2 °C 1006.0 hPa North 2.6 km/h 5.0 km/h 97% 0.0 mm 83 W/m2
08:40 8.0 °C 7.7 °C 1005.6 hPa Calm   5.0 km/h 98% 0.0 mm 139 W/m2
08:45 8.7 °C 8.4 °C 1006.0 hPa NE 1.1 km/h 3.5 km/h 98% 0.0 mm 100 W/m2
08:50 9.4 °C 9.1 °C 1005.6 hPa NE 1.1 km/h 3.5 km/h 98% 0.0 mm 166 W/m2
08:55 10.0 °C 9.6 °C 1005.6 hPa NNE 1.1 km/h 3.5 km/h 97% 0.0 mm 93 W/m2
09:00 9.5 °C 8.9 °C 1005.6 hPa North 1.1 km/h 5.0 km/h 96% 0.0 mm 130 W/m2
09:05 9.8 °C 9.1 °C 1005.6 hPa NNW 2.6 km/h 6.1 km/h 95% 0.0 mm 169 W/m2
09:10 10.1 °C 9.0 °C 1005.6 hPa North 1.1 km/h 6.1 km/h 93% 0.0 mm 103 W/m2
09:15 10.0 °C 8.6 °C 1005.6 hPa North 1.1 km/h 5.0 km/h 91% 0.0 mm 239 W/m2
09:20 10.8 °C 9.4 °C 1005.6 hPa North 2.6 km/h 5.0 km/h 91% 0.0 mm 257 W/m2
09:25 11.5 °C 9.6 °C 1005.6 hPa Calm   5.0 km/h 88% 0.0 mm 224 W/m2
09:30 12.5 °C 10.2 °C 1005.6 hPa North 1.1 km/h 5.0 km/h 86% 0.0 mm 156 W/m2
09:35 12.6 °C 9.6 °C 1005.3 hPa North 1.1 km/h 5.0 km/h 82% 0.0 mm 142 W/m2
09:40 12.6 °C 9.2 °C 1005.3 hPa Calm   5.0 km/h 80% 0.0 mm 96 W/m2
09:45 12.3 °C 8.9 °C 1005.3 hPa NNW 2.6 km/h 5.0 km/h 80% 0.0 mm 98 W/m2
09:50 12.4 °C 9.2 °C 1005.3 hPa NNW 3.5 km/h 5.0 km/h 81% 0.0 mm 98 W/m2
09:55 12.7 °C 9.5 °C 1005.3 hPa Calm   5.0 km/h 81% 0.0 mm 108 W/m2
10:00 13.2 °C 9.8 °C 1005.0 hPa Calm   5.0 km/h 80% 0.0 mm 107 W/m2
10:05 13.7 °C 10.1 °C 1005.0 hPa NNW 6.1 km/h 8.7 km/h 79% 0.0 mm 107 W/m2
10:10 14.0 °C 9.8 °C 1005.0 hPa NW 3.5 km/h 8.7 km/h 76% 0.0 mm 115 W/m2
10:15 14.5 °C 9.9 °C 1004.6 hPa NNE 7.2 km/h 13.4 km/h 74% 0.0 mm 119 W/m2
10:31 14.7 °C 9.3 °C 1004.6 hPa NNE 5.0 km/h 19.5 km/h 70% 0.0 mm 100 W/m2
10:36 14.7 °C 9.5 °C 1004.6 hPa NNE 5.0 km/h 12.2 km/h 71% 0.0 mm 94 W/m2
10:41 14.6 °C 9.2 °C 1004.6 hPa NNE 7.2 km/h 13.4 km/h 70% 0.0 mm 75 W/m2
10:46 14.6 °C 9.4 °C 1004.3 hPa NE 11.1 km/h 18.3 km/h 71% 0.0 mm 65 W/m2
10:51 14.6 °C 9.2 °C 1004.3 hPa ENE 11.1 km/h 18.3 km/h 70% 0.0 mm 60 W/m2
10:56 14.6 °C 9.0 °C 1003.9 hPa ENE 6.1 km/h 18.3 km/h 69% 0.0 mm 62 W/m2
11:01 14.7 °C 9.3 °C 1003.9 hPa ENE 5.0 km/h 15.8 km/h 70% 0.0 mm 66 W/m2
11:06 14.7 °C 9.1 °C 1003.9 hPa NE 5.0 km/h 17.2 km/h 69% 0.0 mm 78 W/m2
11:11 14.8 °C 9.2 °C 1003.9 hPa NE 7.2 km/h 17.2 km/h 69% 0.0 mm 99 W/m2
11:16 14.9 °C 9.1 °C 1003.9 hPa NE 9.7 km/h 18.3 km/h 68% 0.0 mm 101 W/m2
11:21 15.0 °C 8.9 °C 1003.6 hPa NE 9.7 km/h 18.3 km/h 67% 0.0 mm 94 W/m2
11:26 15.0 °C 8.9 °C 1003.6 hPa NE 8.7 km/h 15.8 km/h 67% 0.0 mm 80 W/m2
11:43 14.9 °C 9.3 °C 1003.3 hPa NE 6.1 km/h 20.9 km/h 69% 0.0 mm 74 W/m2
11:48 15.0 °C 9.2 °C 1002.9 hPa NE 7.2 km/h 20.9 km/h 68% 0.0 mm 89 W/m2
11:53 15.1 °C 9.2 °C 1002.6 hPa NNE 9.7 km/h 15.8 km/h 68% 0.0 mm 100 W/m2
11:58 15.2 °C 9.1 °C 1002.6 hPa NNE 5.0 km/h 15.8 km/h 67% 0.0 mm 78 W/m2
12:03 15.2 °C 9.1 °C 1002.6 hPa NE 9.7 km/h 15.8 km/h 67% 0.0 mm 66 W/m2
12:08 15.2 °C 9.3 °C 1002.3 hPa ENE 3.5 km/h 14.8 km/h 68% 0.0 mm 69 W/m2
12:13 15.2 °C 9.3 °C 1002.3 hPa NE 7.2 km/h 13.4 km/h 68% 0.0 mm 81 W/m2
12:18 15.2 °C 9.3 °C 1001.9 hPa NE 7.2 km/h 14.8 km/h 68% 0.0 mm 86 W/m2
12:23 15.2 °C 9.3 °C 1001.9 hPa NE 6.1 km/h 14.8 km/h 68% 0.0 mm 81 W/m2
12:28 15.2 °C 9.3 °C 1001.6 hPa NE 5.0 km/h 11.1 km/h 68% 0.0 mm 78 W/m2
12:33 15.3 °C 9.4 °C 1001.6 hPa NE 5.0 km/h 9.7 km/h 68% 0.0 mm 89 W/m2
12:38 15.3 °C 9.4 °C 1001.6 hPa NE 3.5 km/h 8.7 km/h 68% 0.0 mm 92 W/m2
12:44 15.4 °C 9.6 °C 1001.2 hPa ENE 2.6 km/h 6.1 km/h 68% 0.0 mm 92 W/m2
12:49 15.5 °C 9.8 °C 1000.9 hPa NE 1.1 km/h 5.0 km/h 69% 0.0 mm 93 W/m2
12:54 15.7 °C 9.8 °C 1000.9 hPa NE 3.5 km/h 7.2 km/h 68% 0.0 mm 94 W/m2
12:59 15.6 °C 9.5 °C 1000.9 hPa NE 2.6 km/h 9.7 km/h 67% 0.0 mm 107 W/m2
13:04 15.7 °C 10.1 °C 1000.9 hPa NE 2.6 km/h 9.7 km/h 69% 0.0 mm 130 W/m2
13:09 15.8 °C 10.3 °C 1000.6 hPa NE 1.1 km/h 5.0 km/h 70% 0.0 mm 140 W/m2
13:14 16.5 °C 10.6 °C 1000.6 hPa NE 3.5 km/h 6.1 km/h 68% 0.0 mm 169 W/m2
13:19 17.0 °C 10.4 °C 1000.6 hPa ENE 6.1 km/h 8.7 km/h 65% 0.0 mm 179 W/m2
13:24 16.5 °C 9.7 °C 1000.2 hPa ENE 5.0 km/h 9.7 km/h 64% 0.0 mm 157 W/m2
13:30 16.4 °C 9.8 °C 1000.6 hPa East 3.5 km/h 9.7 km/h 65% 0.0 mm 148 W/m2
13:35 16.4 °C 10.1 °C 1000.2 hPa East 2.6 km/h 8.7 km/h 66% 0.0 mm 158 W/m2
13:40 16.9 °C 10.9 °C 999.9 hPa SE 6.1 km/h 7.2 km/h 68% 0.0 mm 182 W/m2
13:45 18.0 °C 11.8 °C 999.5 hPa SE 7.2 km/h 8.7 km/h 67% 0.0 mm 185 W/m2
13:50 18.1 °C 11.4 °C 999.2 hPa SE 2.6 km/h 12.2 km/h 65% 0.0 mm 144 W/m2
13:55 18.3 °C 11.4 °C 999.2 hPa SE 3.5 km/h 12.2 km/h 64% 0.0 mm 122 W/m2
14:00 18.7 °C 12.0 °C 999.2 hPa SE 2.6 km/h 8.7 km/h 65% 0.0 mm 114 W/m2
14:05 18.8 °C 11.1 °C 999.2 hPa ENE 2.6 km/h 9.7 km/h 61% 0.0 mm 128 W/m2
14:10 19.4 °C 11.4 °C 998.9 hPa NNE 5.0 km/h 9.7 km/h 60% 0.0 mm 129 W/m2
14:15 19.0 °C 11.6 °C 998.9 hPa North 12.2 km/h 20.9 km/h 62% 0.0 mm 140 W/m2
14:20 18.4 °C 11.7 °C 998.5 hPa NNE 9.7 km/h 24.5 km/h 65% 0.0 mm 137 W/m2
14:25 18.5 °C 12.1 °C 998.5 hPa NNE 5.0 km/h 24.5 km/h 66% 0.0 mm 213 W/m2
14:30 19.2 °C 11.5 °C 998.2 hPa ENE 2.6 km/h 15.8 km/h 61% 0.0 mm 134 W/m2
14:35 18.9 °C 11.7 °C 997.9 hPa NE 2.6 km/h 6.1 km/h 63% 0.0 mm 134 W/m2
14:40 19.1 °C 12.2 °C 997.9 hPa Calm   6.1 km/h 64% 0.0 mm 172 W/m2
14:45 20.1 °C 12.6 °C 997.5 hPa NNE 1.1 km/h 5.0 km/h 62% 0.0 mm 135 W/m2
14:50 19.7 °C 11.7 °C 997.2 hPa NE 5.0 km/h 11.1 km/h 60% 0.0 mm 190 W/m2
14:55 19.4 °C 11.9 °C 997.2 hPa NE 5.0 km/h 11.1 km/h 62% 0.0 mm 144 W/m2
15:00 19.2 °C 12.0 °C 997.2 hPa NE 6.1 km/h 11.1 km/h 63% 0.0 mm 139 W/m2
15:05 18.8 °C 12.1 °C 997.2 hPa NNE 6.1 km/h 11.1 km/h 65% 0.0 mm 187 W/m2
15:11 19.1 °C 11.9 °C 997.2 hPa North 7.2 km/h 12.2 km/h 63% 0.0 mm 107 W/m2
15:16 18.7 °C 12.0 °C 997.2 hPa NNE 5.0 km/h 12.2 km/h 65% 0.0 mm 135 W/m2
15:21 19.0 °C 12.1 °C 996.8 hPa NNE 2.6 km/h 12.2 km/h 64% 0.0 mm 156 W/m2
15:26 19.3 °C 11.8 °C 996.8 hPa NE 3.5 km/h 12.2 km/h 62% 0.0 mm 95 W/m2
15:31 18.5 °C 11.8 °C 996.5 hPa NE 3.5 km/h 9.7 km/h 65% 0.0 mm 88 W/m2
15:36 18.1 °C 11.7 °C 996.2 hPa ENE 6.1 km/h 9.7 km/h 66% 0.0 mm 73 W/m2
15:41 17.8 °C 11.6 °C 996.2 hPa ENE 6.1 km/h 9.7 km/h 67% 0.0 mm 71 W/m2
15:46 17.6 °C 11.6 °C 995.8 hPa East 3.5 km/h 9.7 km/h 68% 0.0 mm 57 W/m2
15:51 17.5 °C 11.6 °C 995.8 hPa East 5.0 km/h 9.7 km/h 68% 0.0 mm 42 W/m2
15:56 17.4 °C 11.7 °C 995.5 hPa ENE 5.0 km/h 8.7 km/h 69% 0.0 mm 32 W/m2
16:01 17.3 °C 11.6 °C 995.5 hPa East 8.7 km/h 11.1 km/h 69% 0.0 mm 33 W/m2
16:06 17.2 °C 11.7 °C 995.5 hPa East 6.1 km/h 11.1 km/h 70% 0.0 mm 28 W/m2
16:11 17.1 °C 11.8 °C 995.5 hPa ENE 3.5 km/h 8.7 km/h 71% 0.0 mm 24 W/m2
16:16 17.0 °C 11.9 °C 995.5 hPa ENE 3.5 km/h 8.7 km/h 72% 0.0 mm 21 W/m2
16:21 16.8 °C 12.2 °C 995.1 hPa ENE 5.0 km/h 7.2 km/h 74% 0.0 mm 20 W/m2
16:26 16.7 °C 12.3 °C 994.8 hPa ENE 13.4 km/h 15.8 km/h 75% 0.0 mm 22 W/m2
16:31 16.7 °C 12.3 °C 994.8 hPa ENE 3.5 km/h 15.8 km/h 75% 0.0 mm 20 W/m2
16:36 16.7 °C 12.3 °C 994.8 hPa NE 9.7 km/h 15.8 km/h 75% 0.0 mm 12 W/m2
16:41 16.8 °C 12.3 °C 994.8 hPa NE 5.0 km/h 13.4 km/h 75% 0.0 mm 7 W/m2
16:46 16.8 °C 12.3 °C 994.5 hPa NE 13.4 km/h 21.9 km/h 75% 0.0 mm 4 W/m2
16:51 16.7 °C 12.4 °C 994.5 hPa ENE 14.8 km/h 24.5 km/h 76% 0.0 mm 4 W/m2
16:56 16.7 °C 12.4 °C 994.1 hPa ENE 5.0 km/h 24.5 km/h 76% 0.0 mm 4 W/m2
17:01 16.6 °C 12.3 °C 994.1 hPa NE 9.7 km/h 21.9 km/h 76% 0.0 mm 1 W/m2
17:06 16.5 °C 12.4 °C 994.1 hPa NE 7.2 km/h 15.8 km/h 77% 0.0 mm 0 W/m2
17:11 16.5 °C 12.4 °C 993.8 hPa ENE 11.1 km/h 15.8 km/h 77% 0.0 mm 0 W/m2
17:16 16.4 °C 12.6 °C 993.5 hPa ENE 11.1 km/h 18.3 km/h 78% 0.0 mm 0 W/m2
17:21 16.4 °C 12.6 °C 993.1 hPa ENE 8.7 km/h 19.5 km/h 78% 0.0 mm 0 W/m2
17:26 16.3 °C 12.7 °C 993.1 hPa ENE 5.0 km/h 19.5 km/h 79% 0.0 mm 0 W/m2
17:31 16.2 °C 12.8 °C 993.1 hPa NE 5.0 km/h 12.2 km/h 80% 0.0 mm 0 W/m2
17:36 16.1 °C 13.1 °C 993.1 hPa NE 3.5 km/h 14.8 km/h 82% 0.0 mm 0 W/m2
17:41 16.1 °C 13.1 °C 993.1 hPa NE 7.2 km/h 14.8 km/h 82% 0.0 mm 0 W/m2
17:46 16.3 °C 13.2 °C 992.8 hPa NE 15.8 km/h 20.9 km/h 82% 0.0 mm 0 W/m2
17:51 16.4 °C 13.1 °C 992.4 hPa NE 13.4 km/h 25.6 km/h 81% 0.0 mm 0 W/m2
17:56 16.5 °C 13.2 °C 992.1 hPa ENE 17.2 km/h 27.0 km/h 81% 0.0 mm 0 W/m2
18:01 16.3 °C 13.1 °C 992.1 hPa ENE 13.4 km/h 27.0 km/h 81% 0.0 mm 0 W/m2
18:06 16.3 °C 13.2 °C 991.8 hPa ENE 9.7 km/h 23.3 km/h 82% 0.0 mm 0 W/m2
18:11 16.4 °C 13.1 °C 991.8 hPa ENE 9.7 km/h 23.3 km/h 81% 0.0 mm 0 W/m2
18:16 16.4 °C 13.1 °C 991.8 hPa NE 6.1 km/h 18.3 km/h 81% 0.0 mm 0 W/m2
18:21 16.3 °C 13.1 °C 991.8 hPa NE 7.2 km/h 18.3 km/h 81% 0.0 mm 0 W/m2
18:26 16.3 °C 13.1 °C 991.8 hPa NE 6.1 km/h 12.2 km/h 81% 0.0 mm 0 W/m2
18:31 16.3 °C 13.1 °C 992.1 hPa NE 2.6 km/h 12.2 km/h 81% 0.0 mm 0 W/m2
18:36 16.2 °C 12.9 °C 991.8 hPa NNE 2.6 km/h 9.7 km/h 81% 0.0 mm 0 W/m2
18:41 16.1 °C 12.8 °C 992.1 hPa North 2.6 km/h 7.2 km/h 81% 0.0 mm 0 W/m2
18:46 15.8 °C 12.7 °C 991.8 hPa NNW 3.5 km/h 7.2 km/h 82% 0.0 mm 0 W/m2
18:51 15.5 °C 12.6 °C 991.8 hPa NW 1.1 km/h 3.5 km/h 83% 0.0 mm 0 W/m2
18:56 15.3 °C 12.4 °C 991.4 hPa Calm   5.0 km/h 83% 0.0 mm 0 W/m2
19:01 15.1 °C 12.4 °C 991.4 hPa SW 1.1 km/h 5.0 km/h 84% 0.0 mm 0 W/m2
19:06 14.8 °C 12.3 °C 991.4 hPa East 6.1 km/h 12.2 km/h 85% 0.0 mm 0 W/m2
19:11 15.3 °C 13.0 °C 991.4 hPa NE 6.1 km/h 13.4 km/h 86% 0.0 mm 0 W/m2
19:16 16.3 °C 13.6 °C 991.1 hPa NE 20.9 km/h 31.7 km/h 84% 0.0 mm 0 W/m2
19:21 17.0 °C 13.2 °C 991.1 hPa NNE 13.4 km/h 31.7 km/h 78% 0.3 mm 0 W/m2
19:26 17.3 °C 13.1 °C 990.7 hPa NNE 7.2 km/h 31.7 km/h 76% 0.3 mm 0 W/m2
19:31 17.4 °C 12.9 °C 990.4 hPa NE 7.2 km/h 29.4 km/h 75% 0.3 mm 0 W/m2
19:36 17.5 °C 12.8 °C 990.4 hPa NE 13.4 km/h 29.4 km/h 74% 0.3 mm 0 W/m2
19:41 17.5 °C 12.8 °C 990.4 hPa NNE 12.2 km/h 24.5 km/h 74% 0.3 mm 0 W/m2
19:46 17.5 °C 12.6 °C 990.4 hPa NNE 9.7 km/h 24.5 km/h 73% 0.3 mm 0 W/m2
19:51 17.5 °C 12.6 °C 990.1 hPa NE 7.2 km/h 21.9 km/h 73% 0.3 mm 0 W/m2
19:56 17.6 °C 12.5 °C 989.7 hPa ENE 19.5 km/h 24.5 km/h 72% 0.3 mm 0 W/m2
20:01 17.6 °C 12.5 °C 989.4 hPa ENE 12.2 km/h 24.5 km/h 72% 0.3 mm 0 W/m2
20:06 17.5 °C 12.4 °C 989.4 hPa NE 9.7 km/h 24.5 km/h 72% 0.3 mm 0 W/m2
20:11 17.4 °C 12.3 °C 989.4 hPa NE 11.1 km/h 25.6 km/h 72% 0.3 mm 0 W/m2
20:16 17.4 °C 12.3 °C 989.4 hPa NE 20.9 km/h 28.0 km/h 72% 0.3 mm 0 W/m2
20:21 17.6 °C 12.3 °C 989.1 hPa NE 11.1 km/h 28.0 km/h 71% 0.0 mm 0 W/m2
20:26 17.5 °C 12.2 °C 988.7 hPa NE 7.2 km/h 28.0 km/h 71% 0.0 mm 0 W/m2
20:31 17.4 °C 12.1 °C 988.7 hPa NE 12.2 km/h 28.0 km/h 71% 0.0 mm 0 W/m2
20:36 17.5 °C 12.2 °C 988.4 hPa ENE 8.7 km/h 20.9 km/h 71% 0.0 mm 0 W/m2
20:41 17.4 °C 12.3 °C 988.4 hPa ENE 8.7 km/h 17.2 km/h 72% 0.0 mm 0 W/m2
20:46 17.4 °C 12.3 °C 988.4 hPa ENE 9.7 km/h 18.3 km/h 72% 0.0 mm 0 W/m2
20:51 17.4 °C 12.3 °C 988.4 hPa NE 11.1 km/h 21.9 km/h 72% 0.0 mm 0 W/m2
20:56 17.4 °C 12.3 °C 988.0 hPa NE 7.2 km/h 21.9 km/h 72% 0.0 mm 0 W/m2
21:01 17.1 °C 12.2 °C 987.4 hPa ENE 8.7 km/h 18.3 km/h 73% 0.0 mm 0 W/m2
21:06 17.1 °C 12.2 °C 987.7 hPa NE 6.1 km/h 17.2 km/h 73% 0.0 mm 0 W/m2
21:11 17.3 °C 12.4 °C 987.4 hPa NE 11.1 km/h 13.4 km/h 73% 0.0 mm 0 W/m2
21:16 17.3 °C 12.4 °C 987.0 hPa NE 5.0 km/h 13.4 km/h 73% 0.0 mm 0 W/m2
21:21 17.2 °C 12.3 °C 987.4 hPa NE 1.1 km/h 13.4 km/h 73% 0.0 mm 0 W/m2
21:26 17.0 °C 12.1 °C 987.4 hPa NNE 5.0 km/h 11.1 km/h 73% 0.0 mm 0 W/m2
21:31 17.0 °C 12.1 °C 987.4 hPa NNE 5.0 km/h 11.1 km/h 73% 0.0 mm 0 W/m2
21:36 17.0 °C 12.1 °C 987.4 hPa NNE 11.1 km/h 13.4 km/h 73% 0.0 mm 0 W/m2
21:41 17.3 °C 12.2 °C 987.0 hPa NE 7.2 km/h 18.3 km/h 72% 0.0 mm 0 W/m2
21:46 17.4 °C 12.3 °C 986.7 hPa NNE 6.1 km/h 20.9 km/h 72% 0.0 mm 0 W/m2
21:51 17.4 °C 12.3 °C 986.3 hPa NNE 8.7 km/h 20.9 km/h 72% 0.0 mm 0 W/m2
21:56 17.3 °C 12.4 °C 986.3 hPa NNE 9.7 km/h 19.5 km/h 73% 0.0 mm 0 W/m2
22:01 17.0 °C 12.6 °C 986.3 hPa NNE 14.8 km/h 27.0 km/h 75% 0.0 mm 0 W/m2
22:06 16.7 °C 13.1 °C 986.0 hPa NE 9.7 km/h 27.0 km/h 79% 0.0 mm 0 W/m2
22:11 16.6 °C 13.2 °C 985.3 hPa NE 7.2 km/h 18.3 km/h 80% 0.0 mm 0 W/m2
22:16 16.4 °C 13.1 °C 985.0 hPa NNE 12.2 km/h 17.2 km/h 81% 0.0 mm 0 W/m2
22:21 16.6 °C 13.2 °C 984.6 hPa NNE 11.1 km/h 43.9 km/h 80% 0.0 mm 0 W/m2
22:26 16.7 °C 12.7 °C 984.6 hPa NNE 9.7 km/h 43.9 km/h 77% 0.0 mm 0 W/m2
22:31 16.7 °C 12.7 °C 984.3 hPa NE 13.4 km/h 37.8 km/h 77% 0.0 mm 0 W/m2
22:36 16.7 °C 12.7 °C 984.0 hPa ENE 5.0 km/h 30.6 km/h 77% 0.0 mm 0 W/m2
22:41 16.7 °C 12.7 °C 984.0 hPa NE 15.8 km/h 23.3 km/h 77% 0.0 mm 0 W/m2
22:46 16.7 °C 12.4 °C 983.6 hPa NE 11.1 km/h 23.3 km/h 76% 0.0 mm 0 W/m2
22:51 16.7 °C 12.4 °C 983.3 hPa ENE 25.6 km/h 33.1 km/h 76% 0.0 mm 0 W/m2
22:56 16.9 °C 12.4 °C 982.6 hPa ENE 14.8 km/h 35.6 km/h 75% 0.3 mm 0 W/m2
23:01 16.7 °C 12.4 °C 981.9 hPa NE 6.1 km/h 35.6 km/h 76% 0.3 mm 0 W/m2
23:06 16.7 °C 12.4 °C 981.6 hPa ENE 12.2 km/h 35.6 km/h 76% 0.3 mm 0 W/m2
23:11 16.7 °C 12.4 °C 981.6 hPa ENE 11.1 km/h 35.6 km/h 76% 0.3 mm 0 W/m2
23:16 17.0 °C 12.6 °C 980.9 hPa NE 17.2 km/h 28.0 km/h 75% 0.3 mm 0 W/m2
23:21 16.9 °C 12.7 °C 980.6 hPa NE 8.7 km/h 33.1 km/h 76% 0.3 mm 0 W/m2
23:26 16.9 °C 12.8 °C 980.2 hPa ENE 15.8 km/h 33.1 km/h 77% 0.3 mm 0 W/m2
23:31 17.0 °C 12.7 °C 980.2 hPa NE 17.2 km/h 30.6 km/h 76% 0.3 mm 0 W/m2
23:36 17.2 °C 12.9 °C 979.9 hPa NE 7.2 km/h 30.6 km/h 76% 0.3 mm 0 W/m2
23:41 17.0 °C 12.7 °C 979.9 hPa NNE 5.0 km/h 24.5 km/h 76% 0.3 mm 0 W/m2
23:46 16.9 °C 13.1 °C 979.2 hPa NE 3.5 km/h 13.4 km/h 78% 0.3 mm 0 W/m2
23:56 16.7 °C 12.8 °C 979.6 hPa North 6.1 km/h 13.4 km/h 78% 0.0 mm 0 W/m2
Northern Hawkes Bay. New Zealand Historic Data
Compliments of Weather Underground - 2 mb